sensor_id;sensor_type;location;lat;lon;timestamp;P1;durP1;ratioP1;P2;durP2;ratioP2
44098;SDS011;29762;50.086;14.364;2024-01-30T00:01:54;4.40;;;3.25;;
44098;SDS011;29762;50.086;14.364;2024-01-30T00:12:14;4.22;;;3.45;;
44098;SDS011;29762;50.086;14.364;2024-01-30T00:22:33;5.05;;;3.40;;
44098;SDS011;29762;50.086;14.364;2024-01-30T00:32:53;3.95;;;3.17;;
44098;SDS011;29762;50.086;14.364;2024-01-30T00:43:12;3.78;;;3.00;;
44098;SDS011;29762;50.086;14.364;2024-01-30T00:53:32;3.75;;;3.10;;
44098;SDS011;29762;50.086;14.364;2024-01-30T01:03:51;4.43;;;3.22;;
44098;SDS011;29762;50.086;14.364;2024-01-30T01:14:10;4.35;;;3.15;;
44098;SDS011;29762;50.086;14.364;2024-01-30T01:24:33;3.58;;;3.15;;
44098;SDS011;29762;50.086;14.364;2024-01-30T01:34:53;4.20;;;3.33;;
44098;SDS011;29762;50.086;14.364;2024-01-30T01:45:12;4.00;;;3.00;;
44098;SDS011;29762;50.086;14.364;2024-01-30T01:55:32;3.38;;;3.08;;
44098;SDS011;29762;50.086;14.364;2024-01-30T02:05:52;4.38;;;3.08;;
44098;SDS011;29762;50.086;14.364;2024-01-30T02:16:11;3.17;;;2.88;;
44098;SDS011;29762;50.086;14.364;2024-01-30T02:26:31;5.13;;;3.50;;
44098;SDS011;29762;50.086;14.364;2024-01-30T02:36:50;3.10;;;2.80;;
44098;SDS011;29762;50.086;14.364;2024-01-30T02:47:09;4.50;;;3.10;;
44098;SDS011;29762;50.086;14.364;2024-01-30T02:57:29;4.00;;;3.22;;
44098;SDS011;29762;50.086;14.364;2024-01-30T03:07:48;3.15;;;2.80;;
44098;SDS011;29762;50.086;14.364;2024-01-30T03:18:07;3.05;;;2.75;;
44098;SDS011;29762;50.086;14.364;2024-01-30T03:28:28;3.03;;;2.80;;
44098;SDS011;29762;50.086;14.364;2024-01-30T03:38:47;4.25;;;2.85;;
44098;SDS011;29762;50.086;14.364;2024-01-30T03:49:07;3.22;;;2.92;;
44098;SDS011;29762;50.086;14.364;2024-01-30T03:59:26;3.22;;;2.92;;
44098;SDS011;29762;50.086;14.364;2024-01-30T04:09:46;3.25;;;2.95;;
44098;SDS011;29762;50.086;14.364;2024-01-30T04:20:05;2.88;;;2.58;;
44098;SDS011;29762;50.086;14.364;2024-01-30T04:30:25;2.78;;;2.53;;
44098;SDS011;29762;50.086;14.364;2024-01-30T04:40:44;3.20;;;2.90;;
44098;SDS011;29762;50.086;14.364;2024-01-30T04:51:04;3.03;;;2.80;;
44098;SDS011;29762;50.086;14.364;2024-01-30T05:01:23;3.30;;;3.00;;
44098;SDS011;29762;50.086;14.364;2024-01-30T05:11:43;3.03;;;2.70;;
44098;SDS011;29762;50.086;14.364;2024-01-30T05:22:02;3.17;;;2.60;;
44098;SDS011;29762;50.086;14.364;2024-01-30T05:32:21;5.97;;;2.97;;
44098;SDS011;29762;50.086;14.364;2024-01-30T05:42:41;3.22;;;2.92;;
44098;SDS011;29762;50.086;14.364;2024-01-30T05:53:00;3.58;;;3.00;;
44098;SDS011;29762;50.086;14.364;2024-01-30T06:03:20;6.38;;;3.00;;
44098;SDS011;29762;50.086;14.364;2024-01-30T06:13:40;4.65;;;3.05;;
44098;SDS011;29762;50.086;14.364;2024-01-30T06:23:59;9.73;;;4.30;;
44098;SDS011;29762;50.086;14.364;2024-01-30T06:34:19;10.98;;;4.60;;
44098;SDS011;29762;50.086;14.364;2024-01-30T06:44:38;11.45;;;4.95;;
44098;SDS011;29762;50.086;14.364;2024-01-30T06:54:58;11.77;;;5.07;;
44098;SDS011;29762;50.086;14.364;2024-01-30T07:05:17;11.57;;;5.18;;
44098;SDS011;29762;50.086;14.364;2024-01-30T07:15:36;13.68;;;5.70;;
44098;SDS011;29762;50.086;14.364;2024-01-30T07:25:56;11.75;;;5.53;;
44098;SDS011;29762;50.086;14.364;2024-01-30T07:36:15;9.80;;;5.20;;
44098;SDS011;29762;50.086;14.364;2024-01-30T07:46:35;13.05;;;5.68;;
44098;SDS011;29762;50.086;14.364;2024-01-30T07:56:54;10.18;;;5.53;;
44098;SDS011;29762;50.086;14.364;2024-01-30T08:07:14;10.00;;;5.68;;
44098;SDS011;29762;50.086;14.364;2024-01-30T08:17:33;11.63;;;5.85;;
44098;SDS011;29762;50.086;14.364;2024-01-30T08:27:53;9.82;;;5.30;;
44098;SDS011;29762;50.086;14.364;2024-01-30T08:38:12;11.60;;;5.45;;
44098;SDS011;29762;50.086;14.364;2024-01-30T08:48:32;10.15;;;5.07;;
44098;SDS011;29762;50.086;14.364;2024-01-30T08:58:51;8.75;;;5.03;;
44098;SDS011;29762;50.086;14.364;2024-01-30T09:09:12;9.00;;;4.95;;
44098;SDS011;29762;50.086;14.364;2024-01-30T09:19:31;6.75;;;4.80;;
44098;SDS011;29762;50.086;14.364;2024-01-30T09:29:51;7.65;;;4.38;;
44098;SDS011;29762;50.086;14.364;2024-01-30T09:40:11;8.30;;;4.93;;
44098;SDS011;29762;50.086;14.364;2024-01-30T09:50:30;6.35;;;4.45;;
44098;SDS011;29762;50.086;14.364;2024-01-30T10:00:50;7.20;;;4.57;;
44098;SDS011;29762;50.086;14.364;2024-01-30T10:11:09;7.88;;;4.30;;
44098;SDS011;29762;50.086;14.364;2024-01-30T10:21:32;6.45;;;4.30;;
44098;SDS011;29762;50.086;14.364;2024-01-30T10:32:01;6.40;;;4.43;;
44098;SDS011;29762;50.086;14.364;2024-01-30T10:42:20;7.00;;;4.13;;
44098;SDS011;29762;50.086;14.364;2024-01-30T10:52:42;7.78;;;4.20;;
44098;SDS011;29762;50.086;14.364;2024-01-30T11:03:02;6.32;;;4.40;;
44098;SDS011;29762;50.086;14.364;2024-01-30T11:13:26;5.25;;;4.13;;
44098;SDS011;29762;50.086;14.364;2024-01-30T11:23:45;4.65;;;3.72;;
44098;SDS011;29762;50.086;14.364;2024-01-30T11:34:05;5.05;;;3.75;;
44098;SDS011;29762;50.086;14.364;2024-01-30T11:44:25;4.88;;;3.72;;
44098;SDS011;29762;50.086;14.364;2024-01-30T11:54:44;5.05;;;3.60;;
44098;SDS011;29762;50.086;14.364;2024-01-30T12:05:04;4.10;;;3.40;;
44098;SDS011;29762;50.086;14.364;2024-01-30T12:15:24;7.93;;;3.75;;
44098;SDS011;29762;50.086;14.364;2024-01-30T12:25:43;5.47;;;3.60;;
44098;SDS011;29762;50.086;14.364;2024-01-30T12:36:03;3.53;;;3.20;;
44098;SDS011;29762;50.086;14.364;2024-01-30T12:46:29;4.35;;;3.40;;
44098;SDS011;29762;50.086;14.364;2024-01-30T12:56:48;4.15;;;3.38;;
44098;SDS011;29762;50.086;14.364;2024-01-30T13:07:08;3.25;;;2.92;;
44098;SDS011;29762;50.086;14.364;2024-01-30T13:17:27;3.70;;;3.20;;
44098;SDS011;29762;50.086;14.364;2024-01-30T13:27:47;3.53;;;3.20;;
44098;SDS011;29762;50.086;14.364;2024-01-30T13:38:06;3.97;;;3.20;;
44098;SDS011;29762;50.086;14.364;2024-01-30T13:48:25;4.45;;;3.10;;
44098;SDS011;29762;50.086;14.364;2024-01-30T13:58:45;3.65;;;2.90;;
44098;SDS011;29762;50.086;14.364;2024-01-30T14:09:04;3.67;;;3.22;;
44098;SDS011;29762;50.086;14.364;2024-01-30T14:19:24;3.55;;;3.10;;
44098;SDS011;29762;50.086;14.364;2024-01-30T14:29:44;3.63;;;3.22;;
44098;SDS011;29762;50.086;14.364;2024-01-30T14:40:03;3.75;;;2.97;;
44098;SDS011;29762;50.086;14.364;2024-01-30T14:50:23;3.78;;;3.30;;
44098;SDS011;29762;50.086;14.364;2024-01-30T15:00:43;3.72;;;3.30;;
44098;SDS011;29762;50.086;14.364;2024-01-30T15:11:03;6.05;;;3.13;;
44098;SDS011;29762;50.086;14.364;2024-01-30T15:21:23;7.90;;;5.82;;
44098;SDS011;29762;50.086;14.364;2024-01-30T15:31:43;6.10;;;5.50;;
44098;SDS011;29762;50.086;14.364;2024-01-30T15:42:02;5.88;;;5.30;;
44098;SDS011;29762;50.086;14.364;2024-01-30T15:52:22;5.88;;;5.07;;
44098;SDS011;29762;50.086;14.364;2024-01-30T16:02:41;6.40;;;5.45;;
44098;SDS011;29762;50.086;14.364;2024-01-30T16:13:01;5.25;;;4.75;;
44098;SDS011;29762;50.086;14.364;2024-01-30T16:23:20;5.95;;;5.38;;
44098;SDS011;29762;50.086;14.364;2024-01-30T16:33:40;6.32;;;4.82;;
44098;SDS011;29762;50.086;14.364;2024-01-30T16:43:59;5.55;;;4.97;;
44098;SDS011;29762;50.086;14.364;2024-01-30T17:02:14;8.50;;;5.90;;
44098;SDS011;29762;50.086;14.364;2024-01-30T17:12:34;7.45;;;4.90;;
44098;SDS011;29762;50.086;14.364;2024-01-30T17:22:54;8.93;;;5.00;;
44098;SDS011;29762;50.086;14.364;2024-01-30T17:33:13;10.32;;;4.70;;
44098;SDS011;29762;50.086;14.364;2024-01-30T17:43:33;5.93;;;4.45;;
44098;SDS011;29762;50.086;14.364;2024-01-30T17:53:52;5.63;;;4.53;;
44098;SDS011;29762;50.086;14.364;2024-01-30T18:04:11;4.88;;;4.30;;
44098;SDS011;29762;50.086;14.364;2024-01-30T18:14:31;5.80;;;4.18;;
44098;SDS011;29762;50.086;14.364;2024-01-30T18:24:50;5.30;;;4.43;;
44098;SDS011;29762;50.086;14.364;2024-01-30T18:35:10;4.65;;;4.15;;
44098;SDS011;29762;50.086;14.364;2024-01-30T18:45:29;4.50;;;4.10;;
44098;SDS011;29762;50.086;14.364;2024-01-30T18:55:49;4.43;;;4.03;;
44098;SDS011;29762;50.086;14.364;2024-01-30T19:06:08;7.35;;;3.92;;
44098;SDS011;29762;50.086;14.364;2024-01-30T19:16:29;6.07;;;4.38;;
44098;SDS011;29762;50.086;14.364;2024-01-30T19:26:48;5.88;;;4.32;;
44098;SDS011;29762;50.086;14.364;2024-01-30T19:37:09;10.65;;;4.00;;
44098;SDS011;29762;50.086;14.364;2024-01-30T19:47:29;8.77;;;4.47;;
44098;SDS011;29762;50.086;14.364;2024-01-30T19:57:48;6.00;;;4.22;;
44098;SDS011;29762;50.086;14.364;2024-01-30T20:08:07;7.88;;;4.32;;
44098;SDS011;29762;50.086;14.364;2024-01-30T20:18:27;6.30;;;4.32;;
44098;SDS011;29762;50.086;14.364;2024-01-30T20:28:50;6.03;;;4.18;;
44098;SDS011;29762;50.086;14.364;2024-01-30T20:39:13;8.40;;;4.22;;
44098;SDS011;29762;50.086;14.364;2024-01-30T20:49:35;4.72;;;4.00;;
44098;SDS011;29762;50.086;14.364;2024-01-30T20:59:55;5.68;;;4.25;;
44098;SDS011;29762;50.086;14.364;2024-01-30T21:10:14;5.35;;;4.07;;
44098;SDS011;29762;50.086;14.364;2024-01-30T21:20:34;6.85;;;4.00;;
44098;SDS011;29762;50.086;14.364;2024-01-30T21:30:54;5.50;;;4.05;;
44098;SDS011;29762;50.086;14.364;2024-01-30T21:41:14;5.75;;;4.28;;
44098;SDS011;29762;50.086;14.364;2024-01-30T21:51:34;5.95;;;4.30;;
44098;SDS011;29762;50.086;14.364;2024-01-30T22:01:54;6.20;;;4.22;;
44098;SDS011;29762;50.086;14.364;2024-01-30T22:12:13;6.78;;;4.25;;
44098;SDS011;29762;50.086;14.364;2024-01-30T22:22:33;6.13;;;4.15;;
44098;SDS011;29762;50.086;14.364;2024-01-30T22:32:55;5.07;;;4.00;;
44098;SDS011;29762;50.086;14.364;2024-01-30T22:43:15;5.93;;;4.10;;
44098;SDS011;29762;50.086;14.364;2024-01-30T22:53:34;5.13;;;3.72;;
44098;SDS011;29762;50.086;14.364;2024-01-30T23:03:54;6.68;;;3.90;;
44098;SDS011;29762;50.086;14.364;2024-01-30T23:14:13;4.35;;;3.50;;
44098;SDS011;29762;50.086;14.364;2024-01-30T23:24:32;5.57;;;3.78;;
44098;SDS011;29762;50.086;14.364;2024-01-30T23:34:52;4.72;;;3.70;;
44098;SDS011;29762;50.086;14.364;2024-01-30T23:45:11;4.00;;;3.60;;
44098;SDS011;29762;50.086;14.364;2024-01-30T23:55:30;3.70;;;3.35;;
